createdAt,value
2018-07-30T00:03:20.808Z,5.25
2018-07-30T00:08:24.526Z,5.00
2018-07-30T00:13:28.365Z,5.00
2018-07-30T00:18:32.094Z,5.00
2018-07-30T00:23:35.871Z,5.80
2018-07-30T00:28:39.603Z,5.00
2018-07-30T00:33:43.866Z,6.00
2018-07-30T00:38:47.899Z,6.25
2018-07-30T00:43:51.869Z,6.00
2018-07-30T00:48:55.658Z,5.75
2018-07-30T00:53:59.552Z,6.00
2018-07-30T00:59:03.340Z,5.75
2018-07-30T01:04:07.027Z,5.60
2018-07-30T01:09:11.643Z,4.80
2018-07-30T01:14:16.079Z,5.00
2018-07-30T01:19:19.883Z,4.60
2018-07-30T01:24:23.660Z,5.00
2018-07-30T01:29:27.336Z,5.25
2018-07-30T01:34:31.117Z,4.60
2018-07-30T01:39:35.877Z,5.60
2018-07-30T01:44:39.582Z,5.50
2018-07-30T01:49:43.234Z,5.50
2018-07-30T01:54:46.995Z,7.40
2018-07-30T01:59:50.998Z,6.20
2018-07-30T02:04:54.686Z,5.00
2018-07-30T02:09:58.502Z,6.00
2018-07-30T02:15:05.524Z,5.00
2018-07-30T02:20:09.190Z,5.00
2018-07-30T02:25:12.902Z,4.00
2018-07-30T02:30:16.606Z,6.00
2018-07-30T02:35:20.392Z,6.50
2018-07-30T02:40:24.106Z,7.80
2018-07-30T02:45:27.857Z,5.60
2018-07-30T02:50:31.532Z,7.50
2018-07-30T02:55:35.183Z,6.50
2018-07-30T03:00:38.931Z,5.40
2018-07-30T03:05:43.292Z,6.60
2018-07-30T03:10:47.049Z,7.00
2018-07-30T03:15:50.763Z,5.80
2018-07-30T03:20:54.534Z,6.25
2018-07-30T03:25:59.091Z,5.00
2018-07-30T03:31:02.832Z,6.60
2018-07-30T03:36:06.745Z,7.25
2018-07-30T03:41:11.649Z,6.50
2018-07-30T03:46:16.572Z,7.00
2018-07-30T03:51:20.323Z,8.00
2018-07-30T03:56:24.146Z,7.75
2018-07-30T04:01:27.903Z,8.75
2018-07-30T04:06:32.192Z,7.25
2018-07-30T04:11:35.959Z,7.00
2018-07-30T04:16:45.050Z,8.50
2018-07-30T04:21:48.714Z,8.00
2018-07-30T04:26:52.375Z,8.25
2018-07-30T04:31:56.042Z,7.25
2018-07-30T04:36:59.741Z,7.40
2018-07-30T04:42:03.486Z,8.00
2018-07-30T04:47:07.208Z,7.00
2018-07-30T04:52:10.882Z,7.00
2018-07-30T04:57:14.630Z,8.00
2018-07-30T05:02:18.903Z,6.50
2018-07-30T05:07:22.582Z,8.50
2018-07-30T05:12:26.455Z,6.00
2018-07-30T05:17:31.223Z,7.20
2018-07-30T05:22:35.042Z,7.00
2018-07-30T05:27:38.757Z,7.80
2018-07-30T05:32:42.863Z,7.50
2018-07-30T05:37:46.534Z,7.25
2018-07-30T05:42:50.403Z,7.00
2018-07-30T05:47:53.946Z,7.00
2018-07-30T05:52:57.663Z,8.00
2018-07-30T05:58:02.287Z,8.50
2018-07-30T06:03:06.061Z,7.20
2018-07-30T06:08:09.719Z,6.40
2018-07-30T06:13:13.457Z,6.75
2018-07-30T06:18:17.143Z,7.75
2018-07-30T06:23:20.793Z,7.00
2018-07-30T06:28:24.503Z,7.50
2018-07-30T06:33:28.311Z,7.40
2018-07-30T06:38:32.208Z,7.20
2018-07-30T06:43:35.838Z,6.40
2018-07-30T06:48:39.522Z,7.80
2018-07-30T06:53:43.275Z,7.60
2018-07-30T06:58:46.998Z,7.00
2018-07-30T07:03:50.686Z,8.00
2018-07-30T07:08:54.396Z,6.50
2018-07-30T07:13:58.196Z,6.00
2018-07-30T07:19:02.260Z,7.00
2018-07-30T07:24:06.147Z,8.00
2018-07-30T07:29:09.801Z,6.60
2018-07-30T07:34:13.562Z,6.25
2018-07-30T07:39:17.478Z,8.50
2018-07-30T07:44:21.298Z,6.00
2018-07-30T07:49:24.942Z,6.40
2018-07-30T07:54:29.453Z,6.50
2018-07-30T07:59:33.188Z,6.60
2018-07-30T08:04:36.962Z,6.40
2018-07-30T08:09:41.531Z,7.75
2018-07-30T08:14:45.259Z,8.00
2018-07-30T08:19:48.955Z,6.60
2018-07-30T08:24:52.638Z,7.00
2018-07-30T08:29:56.416Z,6.25
2018-07-30T08:35:00.185Z,7.40
2018-07-30T08:40:06.963Z,6.60
2018-07-30T08:45:10.686Z,6.00
2018-07-30T08:50:14.369Z,8.20
2018-07-30T08:55:18.144Z,7.25
2018-07-30T09:00:21.957Z,6.60
2018-07-30T09:05:25.789Z,6.60
2018-07-30T09:10:29.434Z,7.50
2018-07-30T09:15:33.130Z,7.00
2018-07-30T09:20:37.560Z,6.80
2018-07-30T09:25:41.225Z,6.75
2018-07-30T09:30:45.598Z,7.80
2018-07-30T09:35:50.344Z,5.60
2018-07-30T09:40:54.838Z,7.50
2018-07-30T09:45:58.595Z,6.00
2018-07-30T09:51:02.352Z,5.80
2018-07-30T09:56:07.400Z,6.80
2018-07-30T10:01:16.164Z,6.00
2018-07-30T10:06:20.794Z,5.60
2018-07-30T10:11:24.768Z,6.00
2018-07-30T10:16:28.650Z,6.00
2018-07-30T10:21:32.506Z,5.75
2018-07-30T10:26:36.308Z,5.00
2018-07-30T10:31:40.137Z,6.20
2018-07-30T10:36:43.851Z,5.00
2018-07-30T10:41:48.457Z,6.00
2018-07-30T10:46:53.122Z,6.40
2018-07-30T10:51:57.086Z,6.20
2018-07-30T10:57:02.535Z,6.60
2018-07-30T11:02:08.482Z,7.00
2018-07-30T11:07:13.055Z,6.00
2018-07-30T11:12:17.094Z,8.20
2018-07-30T11:17:21.739Z,8.00
2018-07-30T11:22:26.479Z,6.75
2018-07-30T11:27:31.176Z,7.75
2018-07-30T11:32:35.900Z,8.00
2018-07-30T11:37:40.384Z,6.80
2018-07-30T11:47:58.950Z,6.60
2018-07-30T11:53:04.061Z,7.75
2018-07-30T11:58:10.077Z,6.40
2018-07-30T12:03:14.472Z,7.00
2018-07-30T12:08:25.824Z,7.00
2018-07-30T12:13:29.821Z,7.60
2018-07-30T12:18:33.836Z,7.75
2018-07-30T12:23:37.486Z,7.50
2018-07-30T12:28:41.227Z,8.50
2018-07-30T12:33:45.064Z,7.60
2018-07-30T12:38:48.996Z,6.25
2018-07-30T12:43:52.690Z,6.60
2018-07-30T12:48:56.433Z,7.00
2018-07-30T12:54:00.124Z,8.00
2018-07-30T12:59:03.889Z,7.25
2018-07-30T13:04:08.120Z,6.00
2018-07-30T13:09:11.992Z,8.40
2018-07-30T13:14:15.669Z,7.25
2018-07-30T13:19:19.408Z,7.00
2018-07-30T13:24:23.123Z,7.00
2018-07-30T13:29:26.976Z,8.40
2018-07-30T13:34:30.750Z,8.00
2018-07-30T13:39:34.463Z,8.00
2018-07-30T13:44:38.212Z,8.00
2018-07-30T13:49:41.999Z,7.00
2018-07-30T13:54:45.910Z,7.50
2018-07-30T13:59:49.607Z,8.20
2018-07-30T14:04:54.368Z,7.20
2018-07-30T14:09:58.097Z,9.00
2018-07-30T14:15:15.371Z,8.00
2018-07-30T14:20:19.358Z,8.00
2018-07-30T14:25:23.055Z,6.40
2018-07-30T14:30:27.794Z,7.00
2018-07-30T14:35:31.500Z,5.00
2018-07-30T14:40:35.974Z,6.25
2018-07-30T14:45:39.857Z,5.80
2018-07-30T14:50:43.619Z,7.00
2018-07-30T14:55:47.393Z,4.80
2018-07-30T15:00:51.357Z,4.75
2018-07-30T15:05:55.198Z,5.75
2018-07-30T15:10:58.823Z,6.50
2018-07-30T15:16:02.575Z,5.20
2018-07-30T15:21:07.480Z,5.75
2018-07-30T15:26:11.714Z,5.00
2018-07-30T15:31:16.642Z,7.00
2018-07-30T15:36:20.921Z,5.00
2018-07-30T15:41:24.711Z,4.20
2018-07-30T15:46:28.556Z,3.75
2018-07-30T15:51:32.389Z,3.50
2018-07-30T15:56:36.259Z,4.75
2018-07-30T16:01:40.606Z,6.00
2018-07-30T16:06:44.479Z,4.00
2018-07-30T16:11:48.389Z,4.60
2018-07-30T16:16:52.235Z,4.20
2018-07-30T16:21:55.934Z,5.80
2018-07-30T16:26:59.953Z,5.00
2018-07-30T16:32:04.795Z,6.75
2018-07-30T16:37:08.860Z,6.75
2018-07-30T16:47:26.208Z,7.20
2018-07-30T16:52:30.121Z,6.80
2018-07-30T16:57:34.141Z,6.40
2018-07-30T17:02:38.202Z,5.50
2018-07-30T17:07:43.159Z,5.80
2018-07-30T17:12:47.348Z,7.00
2018-07-30T17:17:51.205Z,6.00
2018-07-30T17:22:55.128Z,7.80
2018-07-30T17:27:58.882Z,6.40
2018-07-30T17:33:02.651Z,6.00
2018-07-30T17:38:06.578Z,6.00
2018-07-30T17:43:10.432Z,6.00
2018-07-30T17:48:14.364Z,6.00
2018-07-30T17:53:18.184Z,5.50
2018-07-30T17:58:22.256Z,6.20
2018-07-30T18:03:26.077Z,6.40
2018-07-30T18:08:30.020Z,5.80
2018-07-30T18:13:34.061Z,6.00
2018-07-30T18:18:38.119Z,6.20
2018-07-30T18:23:41.927Z,4.80
2018-07-30T18:28:45.954Z,5.25
2018-07-30T18:33:50.179Z,6.40
2018-07-30T18:38:54.150Z,5.40
2018-07-30T18:43:59.601Z,7.00
2018-07-30T18:49:03.387Z,7.00
2018-07-30T18:54:07.768Z,6.25
2018-07-30T18:59:12.623Z,6.50
2018-07-30T19:04:20.133Z,7.80
2018-07-30T19:09:34.815Z,6.25
2018-07-30T19:14:39.771Z,8.00
2018-07-30T19:25:07.471Z,6.80
2018-07-30T19:30:12.561Z,8.00
2018-07-30T19:40:47.848Z,7.20
2018-07-30T19:45:54.388Z,9.50
2018-07-30T19:50:59.627Z,8.75
2018-07-30T19:56:03.732Z,8.80
2018-07-30T20:01:08.068Z,6.80
2018-07-30T20:06:12.024Z,10.00
2018-07-30T20:11:16.289Z,9.00
2018-07-30T20:16:20.300Z,8.80
2018-07-30T20:21:26.189Z,9.75
2018-07-30T20:26:30.663Z,9.75
2018-07-30T20:31:34.587Z,9.60
2018-07-30T20:36:38.654Z,9.00
2018-07-30T20:41:42.785Z,8.50
2018-07-30T20:46:47.119Z,9.50
2018-07-30T20:51:50.976Z,11.50
2018-07-30T20:56:54.832Z,9.40
2018-07-30T21:01:58.702Z,10.50
2018-07-30T21:07:02.850Z,10.25
2018-07-30T21:12:07.036Z,11.60
2018-07-30T21:17:10.889Z,10.60
2018-07-30T21:22:14.689Z,10.00
2018-07-30T21:27:18.729Z,9.00
2018-07-30T21:32:22.425Z,9.50
2018-07-30T21:37:26.366Z,10.50
2018-07-30T21:42:30.192Z,11.00
2018-07-30T21:47:34.027Z,9.60
2018-07-30T21:52:37.662Z,9.80
2018-07-30T21:57:41.536Z,10.00
2018-07-30T22:02:45.897Z,11.00
2018-07-30T22:07:50.135Z,9.25
2018-07-30T22:12:55.036Z,9.00
2018-07-30T22:17:58.897Z,10.50
2018-07-30T22:23:02.671Z,10.50
2018-07-30T22:28:07.035Z,9.50
2018-07-30T22:33:10.825Z,11.00
2018-07-30T22:38:14.630Z,10.00
2018-07-30T22:43:18.494Z,9.40
2018-07-30T22:48:22.297Z,10.80
2018-07-30T22:53:26.164Z,8.80
2018-07-30T22:58:29.883Z,11.00
2018-07-30T23:03:33.624Z,10.00
2018-07-30T23:08:37.350Z,9.25
2018-07-30T23:13:41.174Z,9.40
2018-07-30T23:18:44.895Z,9.40
2018-07-30T23:23:48.620Z,10.40
2018-07-30T23:28:52.439Z,10.75
2018-07-30T23:33:56.248Z,11.00
2018-07-30T23:39:00.092Z,10.00
2018-07-30T23:44:04.003Z,10.20
2018-07-30T23:49:07.773Z,10.00
2018-07-30T23:54:12.312Z,10.00
2018-07-30T23:59:15.938Z,11.20
